Aérodrome :
LOGIN :

S'inscrire | Disclaimer

   EN    FR    IT 

 










Légende :    VFR   VFR Marginal   IFR   IFR Intensif   IFR Très Intensif
Visi : 
Plafond : 
>= 8 km
>= 3000ft
5 à 8 km
1000 à 3000 ft
1500m à 5 km
500 à 1000 ft
800 à 1500m
200 à 500 ft
< 800m
< 200 ft
Symboles :   Orages  Brouillard  Fortes neiges  Fortes précipitations  Vent > 20 kt
SIGMETs :   Divers  Orages  Givrage  Turbulence  Onde Orograph.  Cendres Volcan.






- Altitude de l'aérodrome : 2776 ft
- Code IATA : VLL


LEVD - Valladolid

DERNIER METAR :
  • 202000Z 29004KT 9999 SCT044 14/14 Q1020

METARs EXPIRÉS :
  • 201930Z 31004KT 9999 SCT047 14/14 Q1019
  • 201900Z 30005KT 9999 SCT045 15/14 Q1019
  • 201830Z 29004KT 9000 FEW015 FEW030TCU SCT040 15/14 Q1019
  • 201800Z 30006KT 9000 -RA SCT013 SCT028TCU BKN040 16/14 Q1019 RERA
  • 201745Z 30008KT 250V330 8000 RA SCT020 SCT030TCU 16/14 Q1019

TAF TAF LEVD
Valide du 20 à 21h jusqu'au 21 à 21h UTC


202000Z 2021/2121 VRB04KT 9999 SCT040 TX23/2115Z TN12/2106Z
PROB40
TEMPO 2021/2023 3000 SHRA SCT030TCU
BECMG 2102/2103 BKN004
PROB40 2102/2109 1000 BCFG
PROB40
TEMPO 2102/2110 0400 FG VV001



MET'MAP, la Météo Aéronautique d'un coup d'oeil ! - Copyright ORBIFLY Décembre 2007 - Disclaimer

ORBIFLY MET'MAP TEAM :

Programmation & Développement : Alexandra Zaïnal
Sur une idée originale de : Baudouin d'Aumeries
Assistance à la programmation : Marc-Olivier Méhu
Soutien technique & logistique : Manuel Goepfert

Contact : metmap@orbifly.com




SOURCES & CREDITS :

   NOAA